Terminal Aerodrome Forecast
Issued by NWS

Home | Current Version | Previous Version | Text Only | Print | Product List | Glossary On
Versions: 1 2 3 4 5 6 7 8 9 10 11 12 13 14 15 16 17 18 19
000
FTUS42 KMLB 291720
TAFFPR
TAF
KFPR 291720Z 2918/3018 12017G25KT P6SM FEW020 FEW025
     FM300100 12014KT P6SM SCT020
     FM301500 13015G24KT P6SM FEW025 SCT040 BKN080=

USA.gov is the U.S. government's official web portal to all federal, state and local government web resources and services.